GQPA/ATR METAR and TAF weather

Enter ICAO airport designator
Station Type Date Time Source
GQPA METAR 2020/11/25 09:00 UTC NOAA

GQPA 250900Z VRB02KT 6000 BLDU NSC 21/02 Q1020


Station Type Date Time Source
GQPA Decoded METAR 2020/11/25 09:00 UTC NOAA

Atar, Mauritania (GQPA) 20-31N 013-04W 224M
Nov 25, 2020 - 04:00 AM EST / 2020.11.25 0900 UTC
Wind: Variable at 2 MPH (2 KT):0
Visibility: 3 mile(s):0
Weather: blowing widespread dust
Temperature: 69 F (21 C)
Dew Point: 35 F (2 C)
Relative Humidity: 28%
Pressure (altimeter): 30.12 in. Hg (1020 hPa)
ob: GQPA 250900Z VRB02KT 6000 BLDU NSC 21/02 Q1020
cycle: 9

Station Type Date Time Source
GQPA TAF UTC NOAA

Error!

Example: see airport list